Washington, District of Columbia
Traffic Map
Current Weather Conditions
Washington, District of Columbia
Few Clouds
Few Clouds
-10°
Feels Like: -17°
Wind Chill: -17° Ceiling: Unl
Heat Index: -10° Visibility: 10mi
Dew Point: -19° Wind: 10mph
Humidity: 47% Direction: 290° (WNW)
Pressure: 30.52in Gusts: 0mph
Raw Report DataKDCA 140952Z 29009KT 10SM FEW250 M10/M19 A3052 RMK AO2 SLP335 T11001194
Traffic Incident Summary
Active as of:
Severity:
Category:
InformationThere was an issue retrieving the traffic information for this location. Please try a different location or try again shortly.
Advertisements
Track Severe Weather on mobile